createdAt,value
2022-10-28T00:01:04.056Z,38.00
2022-10-28T00:03:31.223Z,39.33
2022-10-28T00:06:03.617Z,39.22
2022-10-28T00:08:31.665Z,39.97
2022-10-28T00:11:12.347Z,37.03
2022-10-28T00:13:40.507Z,36.17
2022-10-28T00:16:13.886Z,38.67
2022-10-28T00:18:42.087Z,37.65
2022-10-28T00:21:12.624Z,38.00
2022-10-28T00:23:40.343Z,38.60
2022-10-28T00:26:16.874Z,37.50
2022-10-28T00:28:46.676Z,39.00
2022-10-28T00:31:16.219Z,36.60
2022-10-28T00:33:43.873Z,37.67
2022-10-28T00:36:20.753Z,34.92
2022-10-28T00:38:50.650Z,36.45
2022-10-28T00:41:20.613Z,38.83
2022-10-28T00:43:51.430Z,37.53
2022-10-28T00:46:32.650Z,37.72
2022-10-28T00:49:04.342Z,38.30
2022-10-28T00:51:35.516Z,36.72
2022-10-28T00:54:05.385Z,37.55
2022-10-28T00:56:36.944Z,35.08
2022-10-28T00:59:09.407Z,38.28
2022-10-28T01:01:36.839Z,35.65
2022-10-28T01:04:04.175Z,36.75
2022-10-28T01:06:31.526Z,37.70
2022-10-28T01:09:00.108Z,36.95
2022-10-28T01:11:35.242Z,36.42
2022-10-28T01:14:10.175Z,35.72
2022-10-28T01:16:55.141Z,36.95
2022-10-28T01:19:43.797Z,35.10
2022-10-28T01:22:21.090Z,34.90
2022-10-28T01:25:09.836Z,34.38
2022-10-28T01:28:04.523Z,37.83
2022-10-28T01:31:08.981Z,35.88
2022-10-28T01:36:12.754Z,35.10
2022-10-28T01:38:47.279Z,34.88
2022-10-28T01:41:33.506Z,35.80
2022-10-28T01:44:06.898Z,36.45
2022-10-28T01:46:56.673Z,35.30
2022-10-28T01:49:32.322Z,38.25
2022-10-28T01:52:03.660Z,34.75
2022-10-28T01:54:34.095Z,34.50
2022-10-28T01:57:04.299Z,36.58
2022-10-28T01:59:34.266Z,37.40
2022-10-28T02:04:33.399Z,36.75
2022-10-28T02:07:01.238Z,34.90
2022-10-28T02:09:28.275Z,34.92
2022-10-28T02:12:07.548Z,36.33
2022-10-28T02:14:59.050Z,35.95
2022-10-28T02:17:38.394Z,33.17
2022-10-28T02:20:22.971Z,33.70
2022-10-28T02:22:58.932Z,37.50
2022-10-28T02:25:32.938Z,36.55
2022-10-28T02:28:06.378Z,33.85
2022-10-28T02:30:37.173Z,35.08
2022-10-28T02:33:10.479Z,35.08
2022-10-28T02:35:40.911Z,33.30
2022-10-28T02:38:14.154Z,33.53
2022-10-28T02:40:46.080Z,34.08
2022-10-28T02:43:17.827Z,32.85
2022-10-28T02:45:48.684Z,34.60
2022-10-28T02:48:36.671Z,31.83
2022-10-28T02:51:32.579Z,34.15
2022-10-28T02:54:06.027Z,35.35
2022-10-28T02:56:40.045Z,33.42
2022-10-28T02:59:12.375Z,33.67
2022-10-28T03:01:40.339Z,33.28
2022-10-28T03:04:07.795Z,34.53
2022-10-28T03:06:34.894Z,34.08
2022-10-28T03:09:02.052Z,33.80
2022-10-28T03:11:29.176Z,32.13
2022-10-28T03:13:56.313Z,35.50
2022-10-28T03:16:23.575Z,31.13
2022-10-28T03:18:50.715Z,31.55
2022-10-28T03:21:17.873Z,35.80
2022-10-28T03:23:44.961Z,33.80
2022-10-28T03:26:12.093Z,32.88
2022-10-28T03:28:39.224Z,34.80
2022-10-28T03:31:06.354Z,33.58
2022-10-28T03:33:33.513Z,32.85
2022-10-28T03:36:00.701Z,34.42
2022-10-28T03:38:27.800Z,35.47
2022-10-28T03:40:55.021Z,35.75
2022-10-28T03:43:22.164Z,35.95
2022-10-28T03:45:49.362Z,34.60
2022-10-28T03:48:16.481Z,34.45
2022-10-28T03:50:43.610Z,35.08
2022-10-28T03:53:10.781Z,35.85
2022-10-28T03:55:37.939Z,33.95
2022-10-28T03:58:05.073Z,35.78
2022-10-28T04:00:32.231Z,36.78
2022-10-28T04:02:59.334Z,34.03
2022-10-28T04:05:26.427Z,33.75
2022-10-28T04:07:54.127Z,36.17
2022-10-28T04:10:21.383Z,33.60
2022-10-28T04:12:48.466Z,34.70
2022-10-28T04:15:15.583Z,32.60
2022-10-28T04:17:42.723Z,33.08
2022-10-28T04:20:10.103Z,35.13
2022-10-28T04:22:37.251Z,32.97
2022-10-28T04:25:04.894Z,32.70
2022-10-28T04:27:32.056Z,33.85
2022-10-28T04:29:59.211Z,33.92
2022-10-28T04:32:26.345Z,33.22
2022-10-28T04:34:53.475Z,32.15
2022-10-28T04:37:20.821Z,31.75
2022-10-28T04:39:48.273Z,32.63
2022-10-28T04:42:16.727Z,32.17
2022-10-28T04:44:43.810Z,32.92
2022-10-28T04:47:10.931Z,30.60
2022-10-28T04:49:38.903Z,32.38
2022-10-28T04:52:06.298Z,30.80
2022-10-28T04:54:33.508Z,32.83
2022-10-28T04:57:00.623Z,30.70
2022-10-28T04:59:27.950Z,31.15
2022-10-28T05:01:55.166Z,31.30
2022-10-28T05:04:22.398Z,31.13
2022-10-28T05:06:49.762Z,29.48
2022-10-28T05:09:16.889Z,29.13
2022-10-28T05:11:44.207Z,31.90
2022-10-28T05:14:11.289Z,30.73
2022-10-28T05:16:38.387Z,30.50
2022-10-28T05:19:05.496Z,29.52
2022-10-28T05:21:32.672Z,31.63
2022-10-28T05:23:59.767Z,30.60
2022-10-28T05:26:26.884Z,29.27
2022-10-28T05:28:54.006Z,30.75
2022-10-28T05:31:21.094Z,31.20
2022-10-28T05:33:48.203Z,31.35
2022-10-28T05:36:15.343Z,30.15
2022-10-28T05:38:45.315Z,32.65
2022-10-28T05:41:12.675Z,32.85
2022-10-28T05:43:39.821Z,30.08
2022-10-28T05:46:06.938Z,31.08
2022-10-28T05:48:34.137Z,31.58
2022-10-28T05:51:01.283Z,33.20
2022-10-28T05:53:28.382Z,32.10
2022-10-28T05:55:55.462Z,31.42
2022-10-28T05:58:22.547Z,32.03
2022-10-28T06:00:49.712Z,29.40
2022-10-28T06:03:16.948Z,29.95
2022-10-28T06:05:45.661Z,31.08
2022-10-28T06:08:13.504Z,30.60
2022-10-28T06:10:41.662Z,30.65
2022-10-28T06:13:08.080Z,29.13
2022-10-28T06:15:35.200Z,33.35
2022-10-28T06:18:02.400Z,30.05
2022-10-28T06:20:29.491Z,31.90
2022-10-28T06:22:56.672Z,30.42
2022-10-28T06:25:25.218Z,30.00
2022-10-28T06:27:56.707Z,31.38
2022-10-28T06:30:25.953Z,31.75
2022-10-28T06:32:56.267Z,30.60
2022-10-28T06:35:23.507Z,29.83
2022-10-28T06:37:56.937Z,30.63
2022-10-28T06:40:25.124Z,28.70
2022-10-28T06:43:03.963Z,29.67
2022-10-28T06:45:32.982Z,28.83
2022-10-28T06:48:04.321Z,28.33
2022-10-28T06:50:33.731Z,26.42
2022-10-28T06:53:01.119Z,28.33
2022-10-28T06:55:28.900Z,29.95
2022-10-28T06:58:00.805Z,27.98
2022-10-28T07:03:02.173Z,27.40
2022-10-28T07:05:29.502Z,29.88
2022-10-28T07:07:56.947Z,29.17
2022-10-28T07:10:24.123Z,29.52
2022-10-28T07:12:53.296Z,26.27
2022-10-28T07:15:20.896Z,29.05
2022-10-28T07:17:59.129Z,30.50
2022-10-28T07:20:27.904Z,28.33
2022-10-28T07:23:02.421Z,27.88
2022-10-28T07:25:30.795Z,26.02
2022-10-28T07:27:59.167Z,26.35
2022-10-28T07:30:28.091Z,25.88
2022-10-28T07:32:55.898Z,24.13
2022-10-28T07:35:23.361Z,26.55
2022-10-28T07:37:50.483Z,25.33
2022-10-28T07:40:17.994Z,25.33
2022-10-28T07:42:45.206Z,24.05
2022-10-28T07:45:12.593Z,25.50
2022-10-28T07:47:39.957Z,24.58
2022-10-28T07:50:08.209Z,26.20
2022-10-28T07:52:36.763Z,26.90
2022-10-28T07:55:05.722Z,26.67
2022-10-28T07:57:34.923Z,30.17
2022-10-28T08:00:02.298Z,30.77
2022-10-28T08:02:38.003Z,29.15
2022-10-28T08:05:05.727Z,31.83
2022-10-28T08:07:36.212Z,31.67
2022-10-28T08:10:07.388Z,31.23
2022-10-28T08:12:34.536Z,30.33
2022-10-28T08:15:02.631Z,33.88
2022-10-28T08:17:30.260Z,33.60
2022-10-28T08:19:57.951Z,31.05
2022-10-28T08:22:25.195Z,31.60
2022-10-28T08:24:52.299Z,35.35
2022-10-28T08:27:19.411Z,33.42
2022-10-28T08:29:46.700Z,35.58
2022-10-28T08:32:13.955Z,34.75
2022-10-28T08:34:43.552Z,35.90
2022-10-28T08:37:11.171Z,31.52
2022-10-28T08:39:38.335Z,32.90
2022-10-28T08:42:22.596Z,33.60
2022-10-28T08:45:02.972Z,33.92
2022-10-28T08:47:38.828Z,31.35
2022-10-28T08:50:13.528Z,31.58
2022-10-28T08:52:50.709Z,31.05
2022-10-28T08:55:44.386Z,33.92
2022-10-28T08:58:25.289Z,33.60
2022-10-28T09:00:59.980Z,32.45
2022-10-28T09:03:33.284Z,33.00
2022-10-28T09:06:05.509Z,34.83
2022-10-28T09:08:51.769Z,36.45
2022-10-28T09:11:27.192Z,33.25
2022-10-28T09:14:19.122Z,35.25
2022-10-28T09:16:49.133Z,35.30
2022-10-28T09:19:37.451Z,33.63
2022-10-28T09:22:39.225Z,34.05
2022-10-28T09:25:48.639Z,32.95
2022-10-28T09:28:24.617Z,31.58
2022-10-28T09:31:08.465Z,33.92
2022-10-28T09:33:35.562Z,33.15
2022-10-28T09:36:11.132Z,31.55
2022-10-28T09:38:38.993Z,36.63
2022-10-28T09:41:36.341Z,34.05
2022-10-28T09:44:15.515Z,33.67
2022-10-28T09:46:46.904Z,36.53
2022-10-28T09:49:41.060Z,39.78
2022-10-28T09:52:16.191Z,37.53
2022-10-28T09:54:51.476Z,37.30
2022-10-28T09:57:20.448Z,37.05
2022-10-28T09:59:47.776Z,40.28
2022-10-28T10:02:27.061Z,37.40
2022-10-28T10:04:59.832Z,38.60
2022-10-28T10:07:37.518Z,37.00
2022-10-28T10:10:17.881Z,36.38
2022-10-28T10:12:48.693Z,37.53
2022-10-28T10:15:32.707Z,39.25
2022-10-28T10:18:02.242Z,37.17
2022-10-28T10:20:55.880Z,37.58
2022-10-28T10:23:30.362Z,37.10
2022-10-28T10:26:01.562Z,37.42
2022-10-28T10:28:29.537Z,36.95
2022-10-28T10:30:59.217Z,35.20
2022-10-28T10:33:34.602Z,37.53
2022-10-28T10:36:14.281Z,38.42
2022-10-28T10:38:50.661Z,35.35
2022-10-28T10:41:35.369Z,34.58
2022-10-28T10:44:25.479Z,36.58
2022-10-28T10:47:03.453Z,38.42
2022-10-28T10:49:35.127Z,36.95
2022-10-28T10:52:07.832Z,38.15
2022-10-28T10:54:37.481Z,37.15
2022-10-28T10:57:09.697Z,40.03
2022-10-28T10:59:37.903Z,36.30
2022-10-28T11:02:22.683Z,36.78
2022-10-28T11:04:59.597Z,36.72
2022-10-28T11:07:28.291Z,37.22
2022-10-28T11:09:55.791Z,37.05
2022-10-28T11:12:35.593Z,34.10
2022-10-28T11:15:16.397Z,35.42
2022-10-28T11:17:58.586Z,35.88
2022-10-28T11:20:31.072Z,40.33
2022-10-28T11:23:00.826Z,36.42
2022-10-28T11:25:38.398Z,36.85
2022-10-28T11:28:28.950Z,36.28
2022-10-28T11:33:50.756Z,37.70
2022-10-28T11:36:34.239Z,37.65
2022-10-28T11:41:56.522Z,36.60
2022-10-28T11:44:47.949Z,36.63
2022-10-28T11:47:36.961Z,37.30
2022-10-28T11:50:22.059Z,36.40
2022-10-28T11:53:10.177Z,34.33
2022-10-28T11:55:50.408Z,36.42
2022-10-28T11:58:48.609Z,33.28
2022-10-28T12:01:31.711Z,32.17
2022-10-28T12:04:25.606Z,34.17
2022-10-28T12:07:04.699Z,33.25
2022-10-28T12:10:02.496Z,30.77
2022-10-28T12:12:47.236Z,32.88
2022-10-28T12:15:51.850Z,31.73
2022-10-28T12:18:49.117Z,30.67
2022-10-28T12:21:27.527Z,35.33
2022-10-28T12:23:58.188Z,27.75
2022-10-28T12:26:44.069Z,28.33
2022-10-28T12:29:27.935Z,29.40
2022-10-28T12:32:00.044Z,27.70
2022-10-28T12:34:47.823Z,27.67
2022-10-28T12:37:28.420Z,26.65
2022-10-28T12:40:14.156Z,33.35
2022-10-28T12:42:48.759Z,26.23
2022-10-28T12:45:18.525Z,28.92
2022-10-28T12:47:55.796Z,30.00
2022-10-28T12:50:40.993Z,29.73
2022-10-28T12:53:43.978Z,29.85
2022-10-28T12:56:19.956Z,29.73
2022-10-28T12:59:11.029Z,29.33
2022-10-28T13:01:38.483Z,29.33
2022-10-28T13:04:05.912Z,29.45
2022-10-28T13:06:57.637Z,27.23
2022-10-28T13:09:37.881Z,31.10
2022-10-28T13:12:15.803Z,29.08
2022-10-28T13:15:16.942Z,27.80
2022-10-28T13:18:11.258Z,24.55
2022-10-28T13:21:07.044Z,31.42
2022-10-28T13:23:47.402Z,29.27
2022-10-28T13:26:32.562Z,29.17
2022-10-28T13:29:04.069Z,27.45
2022-10-28T13:31:45.254Z,27.33
2022-10-28T13:34:16.276Z,26.20
2022-10-28T13:36:57.522Z,26.67
2022-10-28T13:39:27.740Z,27.92
2022-10-28T13:42:13.057Z,26.30
2022-10-28T13:45:03.505Z,26.35
2022-10-28T13:47:31.854Z,27.73
2022-10-28T13:50:08.582Z,28.67
2022-10-28T13:52:41.163Z,28.27
2022-10-28T13:55:14.337Z,25.90
2022-10-28T14:00:20.168Z,26.67
2022-10-28T14:02:58.116Z,25.15
2022-10-28T14:05:47.287Z,24.67
2022-10-28T14:08:39.910Z,25.00
2022-10-28T14:11:11.631Z,24.92
2022-10-28T14:13:50.584Z,25.75
2022-10-28T14:16:30.034Z,26.33
2022-10-28T14:19:02.722Z,24.73
2022-10-28T14:22:00.652Z,24.05
2022-10-28T14:24:39.071Z,27.33
2022-10-28T14:27:06.527Z,25.30
2022-10-28T14:29:55.402Z,25.67
2022-10-28T14:32:31.491Z,24.42
2022-10-28T14:35:10.455Z,24.75
2022-10-28T14:37:43.644Z,26.95
2022-10-28T14:40:24.590Z,25.67
2022-10-28T14:43:06.630Z,25.27
2022-10-28T14:45:59.540Z,25.27
2022-10-28T14:48:40.365Z,25.60
2022-10-28T14:51:14.733Z,26.40
2022-10-28T14:53:43.541Z,27.98
2022-10-28T14:56:20.263Z,27.63
2022-10-28T14:58:48.164Z,25.27
2022-10-28T15:01:18.377Z,26.38
2022-10-28T15:03:48.034Z,25.42
2022-10-28T15:06:46.776Z,26.60
2022-10-28T15:09:28.906Z,22.98
2022-10-28T15:12:02.030Z,25.77
2022-10-28T15:14:45.648Z,24.98
2022-10-28T15:19:47.874Z,23.48
2022-10-28T15:22:30.740Z,23.85
2022-10-28T15:25:05.890Z,22.88
2022-10-28T15:27:38.813Z,22.73
2022-10-28T15:30:20.717Z,23.67
2022-10-28T15:32:48.018Z,24.80
2022-10-28T15:35:45.269Z,25.42
2022-10-28T15:38:21.202Z,26.92
2022-10-28T15:40:49.495Z,26.25
2022-10-28T15:43:28.066Z,25.38
2022-10-28T15:46:09.630Z,28.10
2022-10-28T15:48:37.698Z,28.35
2022-10-28T15:51:18.363Z,28.63
2022-10-28T15:53:46.996Z,29.15
2022-10-28T15:56:14.041Z,28.98
2022-10-28T15:58:43.135Z,28.67
2022-10-28T16:01:39.884Z,30.27
2022-10-28T16:04:39.418Z,29.08
2022-10-28T16:07:08.024Z,29.58
2022-10-28T16:09:42.443Z,32.17
2022-10-28T16:12:16.335Z,29.92
2022-10-28T16:14:48.657Z,32.53
2022-10-28T16:17:23.109Z,30.42
2022-10-28T16:19:54.821Z,30.50
2022-10-28T16:22:24.869Z,31.23
2022-10-28T16:24:53.906Z,34.30
2022-10-28T16:27:23.632Z,34.58
2022-10-28T16:29:51.231Z,34.78
2022-10-28T16:32:35.325Z,32.38
2022-10-28T16:35:03.963Z,33.75
2022-10-28T16:37:34.163Z,32.03
2022-10-28T16:40:01.380Z,32.20
2022-10-28T16:42:28.518Z,32.28
2022-10-28T16:44:55.729Z,32.10
2022-10-28T16:47:26.608Z,32.53
2022-10-28T16:49:57.318Z,35.50
2022-10-28T16:52:30.172Z,31.90
2022-10-28T16:54:57.918Z,34.08
2022-10-28T16:57:26.052Z,37.60
2022-10-28T16:59:53.895Z,36.15
2022-10-28T17:02:36.191Z,35.70
2022-10-28T17:05:05.048Z,33.45
2022-10-28T17:07:32.177Z,35.88
2022-10-28T17:09:59.299Z,40.33
2022-10-28T17:12:27.523Z,37.17
2022-10-28T17:14:54.720Z,36.40
2022-10-28T17:17:21.828Z,36.75
2022-10-28T17:19:49.015Z,37.20
2022-10-28T17:22:16.148Z,36.78
2022-10-28T17:24:43.276Z,38.05
2022-10-28T17:27:10.593Z,40.55
2022-10-28T17:29:38.689Z,39.33
2022-10-28T17:32:09.489Z,41.28
2022-10-28T17:34:36.905Z,40.03
2022-10-28T17:37:04.506Z,39.83
2022-10-28T17:39:31.786Z,38.75
2022-10-28T17:41:59.228Z,40.45
2022-10-28T17:44:26.370Z,39.65
2022-10-28T17:46:53.486Z,40.17
2022-10-28T17:49:20.635Z,41.60
2022-10-28T17:51:47.865Z,38.08
2022-10-28T17:54:15.031Z,37.58
2022-10-28T17:56:42.443Z,36.97
2022-10-28T17:59:09.653Z,37.97
2022-10-28T18:01:36.904Z,39.67
2022-10-28T18:04:05.978Z,39.20
2022-10-28T18:06:33.203Z,40.47
2022-10-28T18:09:00.316Z,38.60
2022-10-28T18:11:27.532Z,39.28
2022-10-28T18:13:56.252Z,43.58
2022-10-28T18:16:27.509Z,40.15
2022-10-28T18:18:55.428Z,43.40
2022-10-28T18:21:23.247Z,41.05
2022-10-28T18:23:54.187Z,39.10
2022-10-28T18:26:21.405Z,40.15
2022-10-28T18:28:49.070Z,38.28
2022-10-28T18:31:18.813Z,41.15
2022-10-28T18:33:46.961Z,39.28
2022-10-28T18:36:35.479Z,40.10
2022-10-28T18:39:06.699Z,37.95
2022-10-28T18:41:37.972Z,38.50
2022-10-28T18:44:05.746Z,40.00
2022-10-28T18:46:38.041Z,40.53
2022-10-28T18:49:05.463Z,38.47
2022-10-28T18:51:34.100Z,39.65
2022-10-28T18:54:01.624Z,37.63
2022-10-28T18:56:29.615Z,46.20
2022-10-28T18:58:58.321Z,45.17
2022-10-28T19:01:28.119Z,40.17
2022-10-28T19:04:05.346Z,46.00
2022-10-28T19:06:34.084Z,45.03
2022-10-28T19:09:03.933Z,52.17
2022-10-28T19:11:32.676Z,48.80
2022-10-28T19:14:02.067Z,41.78
2022-10-28T19:16:31.271Z,45.08
2022-10-28T19:18:59.891Z,49.80
2022-10-28T19:21:28.221Z,66.35
2022-10-28T19:23:55.500Z,68.28
2022-10-28T19:26:23.099Z,55.08
2022-10-28T19:28:51.446Z,55.40
2022-10-28T19:31:21.774Z,57.88
2022-10-28T19:33:49.228Z,55.47
2022-10-28T19:36:25.310Z,46.63
2022-10-28T19:38:56.017Z,44.15
2022-10-28T19:41:28.543Z,45.78
2022-10-28T19:43:58.712Z,44.47
2022-10-28T19:46:28.005Z,43.50
2022-10-28T19:48:58.217Z,39.90
2022-10-28T19:51:28.508Z,45.65
2022-10-28T19:53:58.306Z,43.95
2022-10-28T19:56:26.582Z,51.35
2022-10-28T19:58:58.433Z,46.55
2022-10-28T20:01:28.180Z,45.17
2022-10-28T20:03:55.799Z,49.30
2022-10-28T20:06:26.164Z,48.90
2022-10-28T20:08:53.624Z,49.40
2022-10-28T20:11:27.071Z,49.40
2022-10-28T20:14:00.925Z,49.50
2022-10-28T20:16:28.942Z,47.92
2022-10-28T20:18:57.567Z,45.88
2022-10-28T20:21:27.655Z,43.00
2022-10-28T20:23:56.814Z,43.63
2022-10-28T20:26:26.109Z,44.20
2022-10-28T20:28:53.589Z,43.17
2022-10-28T20:31:23.151Z,42.25
2022-10-28T20:33:55.344Z,44.97
2022-10-28T20:36:30.616Z,40.45
2022-10-28T20:39:10.061Z,41.90
2022-10-28T20:41:38.662Z,43.35
2022-10-28T20:44:06.847Z,41.10
2022-10-28T20:46:34.402Z,44.40
2022-10-28T20:49:02.242Z,45.25
2022-10-28T20:51:31.157Z,45.55
2022-10-28T20:53:58.877Z,41.72
2022-10-28T20:56:30.908Z,43.35
2022-10-28T20:58:58.491Z,42.70
2022-10-28T21:01:37.636Z,41.65
2022-10-28T21:04:07.666Z,43.50
2022-10-28T21:06:36.853Z,43.67
2022-10-28T21:09:05.194Z,46.28
2022-10-28T21:11:32.568Z,42.72
2022-10-28T21:14:01.285Z,43.80
2022-10-28T21:16:29.519Z,43.97
2022-10-28T21:18:56.934Z,42.97
2022-10-28T21:21:25.401Z,42.20
2022-10-28T21:23:52.739Z,40.88
2022-10-28T21:26:20.192Z,42.10
2022-10-28T21:28:51.998Z,41.47
2022-10-28T21:31:20.647Z,41.47
2022-10-28T21:36:21.353Z,41.28
2022-10-28T21:38:48.576Z,41.08
2022-10-28T21:41:20.285Z,41.03
2022-10-28T21:43:49.574Z,41.47
2022-10-28T21:46:18.079Z,41.45
2022-10-28T21:48:45.489Z,42.97
2022-10-28T21:51:15.125Z,41.95
2022-10-28T21:53:44.371Z,40.33
2022-10-28T21:56:18.575Z,39.72
2022-10-28T21:58:50.676Z,37.22
2022-10-28T22:01:20.713Z,38.92
2022-10-28T22:03:49.054Z,38.53
2022-10-28T22:06:16.278Z,39.42
2022-10-28T22:08:43.400Z,39.20
2022-10-28T22:11:18.108Z,45.13
2022-10-28T22:13:45.827Z,41.88
2022-10-28T22:16:15.427Z,40.70
2022-10-28T22:18:43.016Z,43.03
2022-10-28T22:21:21.857Z,40.50
2022-10-28T22:23:50.164Z,42.17
2022-10-28T22:26:20.257Z,42.20
2022-10-28T22:28:48.059Z,41.67
2022-10-28T22:31:18.301Z,38.97
2022-10-28T22:36:16.464Z,37.13
2022-10-28T22:38:44.387Z,39.83
2022-10-28T22:41:13.753Z,40.10
2022-10-28T22:43:42.737Z,36.97
2022-10-28T22:46:10.977Z,37.00
2022-10-28T22:48:38.386Z,34.95
2022-10-28T22:51:05.715Z,36.90
2022-10-28T22:53:32.843Z,36.55
2022-10-28T22:56:00.016Z,36.72
2022-10-28T22:58:27.779Z,35.53
2022-10-28T23:01:04.862Z,36.38
2022-10-28T23:03:43.344Z,34.65
2022-10-28T23:06:11.840Z,35.20
2022-10-28T23:08:40.408Z,36.47
2022-10-28T23:11:09.113Z,36.08
2022-10-28T23:16:10.281Z,34.13
2022-10-28T23:18:38.100Z,34.17
2022-10-28T23:21:07.426Z,32.90
2022-10-28T23:23:34.505Z,33.35
2022-10-28T23:26:02.030Z,33.33
2022-10-28T23:28:29.313Z,33.55
2022-10-28T23:31:03.929Z,32.47
2022-10-28T23:33:32.565Z,34.22
2022-10-28T23:36:02.132Z,33.50
2022-10-28T23:38:29.838Z,35.38
2022-10-28T23:41:01.134Z,36.22
2022-10-28T23:43:29.651Z,34.85
2022-10-28T23:45:57.643Z,34.53
2022-10-28T23:48:26.613Z,36.03
2022-10-28T23:50:54.284Z,38.63
2022-10-28T23:53:22.709Z,34.65
2022-10-28T23:55:50.888Z,34.92
2022-10-28T23:58:19.578Z,35.25
